Time;durP1;ratioP1;P1;durP2;ratioP2;P2;SDS_P1;SDS_P2;PMS_P1;PMS_P2;Temp;Humidity;BMP_temperature;BMP_pressure;BME280_temperature;BME280_humidity;BME280_pressure;Samples;Min_cycle;Max_cycle;Signal;HPM_P1;HPM_P2
2023/03/13 00:01:12;;;;;;;56.72;11.05;;;;;;;-144.73;100.00;54625.28;5073888;28;20021;-75
2023/03/13 00:03:38;;;;;;;64.00;11.40;;;;;;;-144.73;100.00;54563.69;5057059;28;20071;-75
2023/03/13 00:06:03;;;;;;;61.30;13.00;;;;;;;-144.73;100.00;54569.84;5055834;28;20023;-76
2023/03/13 00:08:29;;;;;;;77.97;12.75;;;;;;;-144.73;100.00;54588.31;5056731;28;20500;-75
2023/03/13 00:10:55;;;;;;;78.75;12.68;;;;;;;-144.73;100.00;54580.13;5056346;28;20032;-75
2023/03/13 00:13:21;;;;;;;81.18;13.90;;;;;;;-144.73;100.00;54615.00;5056211;28;20029;-75
2023/03/13 00:15:46;;;;;;;59.67;10.57;;;;;;;-144.73;100.00;54555.47;5056942;28;20039;-76
2023/03/13 00:18:12;;;;;;;80.90;13.65;;;;;;;-144.73;100.00;54559.59;5073698;28;20032;-75
2023/03/13 00:20:37;;;;;;;78.32;11.88;;;;;;;-144.73;100.00;54573.97;5056514;28;20112;-75
2023/03/13 00:23:03;;;;;;;68.95;12.82;;;;;;;-144.73;100.00;54588.31;5073894;28;20083;-75
2023/03/13 00:25:28;;;;;;;65.57;12.02;;;;;;;-144.73;100.00;54576.00;5056455;28;20531;-75
2023/03/13 00:27:53;;;;;;;56.58;13.45;;;;;;;-144.73;100.00;54559.59;5055553;28;20067;-75
2023/03/13 00:30:18;;;;;;;57.17;11.18;;;;;;;-144.73;100.00;54582.16;5055652;28;20028;-75
2023/03/13 00:32:45;;;;;;;71.70;12.40;;;;;;;-144.73;100.00;54580.13;5055807;28;20132;-74
2023/03/13 00:35:12;;;;;;;65.32;11.23;;;;;;;-144.73;100.00;54559.59;5055764;28;20061;-75
2023/03/13 00:37:37;;;;;;;77.43;12.13;;;;;;;-144.73;100.00;54580.13;5055521;28;20028;-75
2023/03/13 00:40:04;;;;;;;67.88;12.55;;;;;;;-144.73;100.00;54543.16;5073935;28;20134;-75
2023/03/13 00:42:30;;;;;;;68.57;13.02;;;;;;;-144.73;100.00;54588.31;5055241;28;20150;-75
2023/03/13 00:44:55;;;;;;;63.85;11.63;;;;;;;-144.73;100.00;54551.38;5073928;28;20074;-75
2023/03/13 00:47:21;;;;;;;65.28;12.40;;;;;;;-144.73;100.00;54590.38;5073455;28;20037;-76
2023/03/13 00:49:46;;;;;;;67.20;12.40;;;;;;;-144.73;100.00;54555.47;5055685;28;20024;-75
2023/03/13 00:52:11;;;;;;;58.78;11.50;;;;;;;-144.73;100.00;54559.59;5073194;28;20060;-75
2023/03/13 00:54:38;;;;;;;56.05;11.82;;;;;;;-144.73;100.00;54610.91;5055648;28;20054;-75
2023/03/13 00:57:03;;;;;;;78.07;14.55;;;;;;;-144.73;100.00;54551.38;5055005;28;20032;-75
2023/03/13 00:59:28;;;;;;;62.53;11.98;;;;;;;-144.73;100.00;54608.84;5056018;28;20024;-75
2023/03/13 01:01:54;;;;;;;76.60;12.55;;;;;;;-144.73;100.00;54596.53;5054806;28;20040;-75
2023/03/13 01:04:19;;;;;;;71.97;12.75;;;;;;;-144.73;100.00;54555.47;5055324;28;20032;-75
2023/03/13 01:06:44;;;;;;;73.53;13.65;;;;;;;-144.73;100.00;54563.69;5072870;28;20060;-75
2023/03/13 01:09:13;;;;;;;73.70;14.35;;;;;;;-144.73;100.00;54612.97;5055384;28;20513;-75
2023/03/13 01:11:40;;;;;;;68.25;13.82;;;;;;;-144.73;100.00;54551.38;5072921;28;20083;-76
2023/03/13 01:14:09;;;;;;;66.72;12.23;;;;;;;-144.73;100.00;54563.69;5055984;28;20066;-76
2023/03/13 01:16:35;;;;;;;60.58;12.18;;;;;;;-144.73;100.00;54547.28;5055065;28;20039;-76
2023/03/13 01:19:03;;;;;;;65.35;12.18;;;;;;;-144.73;100.00;54592.44;5055534;28;20041;-75
2023/03/13 01:21:29;;;;;;;78.45;13.18;;;;;;;-144.73;100.00;54571.91;5054910;28;20044;-76
2023/03/13 01:23:55;;;;;;;77.63;13.38;;;;;;;-144.73;100.00;54578.06;5073025;28;20021;-76
2023/03/13 01:26:23;;;;;;;76.55;13.32;;;;;;;-144.73;100.00;54594.47;5055096;28;20029;-75
2023/03/13 01:28:48;;;;;;;62.33;13.82;;;;;;;-144.73;100.00;54578.06;5072987;28;20031;-75
2023/03/13 01:31:20;;;;;;;89.28;13.27;;;;;;;-144.73;100.00;54576.00;5054632;28;20032;-75
2023/03/13 01:33:46;;;;;;;;;;;;;;;-144.73;100.00;54588.31;5073428;28;20068;-76
2023/03/13 01:36:12;;;;;;;71.32;12.15;;;;;;;-144.73;100.00;54578.06;5054977;28;19971;-75
2023/03/13 01:42:06;;;;;;;72.60;13.10;;;;;;;-144.73;100.00;54555.47;5087331;23;20042;-76
2023/03/13 01:44:52;;;;;;;89.35;14.02;;;;;;;-144.73;100.00;54571.91;5033675;28;20025;-76
2023/03/13 01:47:17;;;;;;;73.22;13.30;;;;;;;-144.73;100.00;54596.53;5033279;28;20037;-76
2023/03/13 01:49:43;;;;;;;73.97;13.32;;;;;;;-144.73;100.00;54576.00;5034926;28;20116;-76
2023/03/13 01:52:13;;;;;;;71.95;12.45;;;;;;;-144.73;100.00;54571.91;5034972;28;20063;-76
2023/03/13 01:54:50;;;;;;;64.15;12.68;;;;;;;-144.73;100.00;54553.44;5037218;28;20048;-76
2023/03/13 01:57:35;;;;;;;87.10;14.55;;;;;;;-144.73;100.00;54592.44;5034449;28;20037;-76
2023/03/13 02:00:11;;;;;;;76.82;12.70;;;;;;;-144.73;100.00;54578.06;5052510;28;20027;-76
2023/03/13 02:02:42;;;;;;;87.82;13.85;;;;;;;-144.73;100.00;54573.97;5034270;28;20037;-76
2023/03/13 02:05:08;;;;;;;74.40;11.90;;;;;;;-144.73;100.00;54598.59;5034906;28;20029;-76
2023/03/13 02:07:39;;;;;;;91.95;14.55;;;;;;;-144.73;100.00;54588.31;5034155;28;20331;-76
2023/03/13 02:10:06;;;;;;;76.07;15.85;;;;;;;-144.73;100.00;54530.84;5035086;28;20036;-75
2023/03/13 02:12:34;;;;;;;73.78;14.38;;;;;;;-144.73;100.00;54551.38;5033968;28;20119;-75
2023/03/13 02:15:15;;;;;;;85.07;14.65;;;;;;;-144.73;100.00;54565.75;5034979;28;20041;-75
2023/03/13 02:17:42;;;;;;;82.37;14.47;;;;;;;-144.73;100.00;54586.28;5051345;28;20033;-75
2023/03/13 02:20:10;;;;;;;70.60;13.35;;;;;;;-144.73;100.00;54539.06;5034435;28;20275;-75
2023/03/13 02:22:49;;;;;;;70.75;13.85;;;;;;;-144.73;100.00;54567.81;5033804;28;20037;-75
2023/03/13 02:25:24;;;;;;;89.53;15.70;;;;;;;-144.73;100.00;54551.38;5034551;28;20091;-75
2023/03/13 02:28:16;;;;;;;84.82;14.98;;;;;;;-144.73;100.00;54543.16;5033745;28;20032;-75
2023/03/13 02:30:42;;;;;;;;;;;;;;;-144.73;100.00;54543.16;5034648;28;20074;-75
2023/03/13 02:33:07;;;;;;;70.45;14.95;;;;;;;-144.73;100.00;54590.38;5033892;28;19913;-74
2023/03/13 02:35:35;;;;;;;81.97;14.77;;;;;;;-144.73;100.00;54580.13;5034451;28;20025;-75
2023/03/13 02:38:04;;;;;;;92.47;14.02;;;;;;;-144.73;100.00;54571.91;5051627;28;20135;-74
2023/03/13 02:40:34;;;;;;;77.30;13.82;;;;;;;-144.73;100.00;54563.69;5034808;28;20039;-75
2023/03/13 02:43:01;;;;;;;73.82;12.82;;;;;;;-144.73;100.00;54576.00;5034104;28;20037;-76
2023/03/13 02:45:26;;;;;;;89.80;14.95;;;;;;;-144.73;100.00;54600.63;5035101;28;20029;-76
2023/03/13 02:47:52;;;;;;;81.70;15.40;;;;;;;-144.73;100.00;54588.31;5033899;28;20067;-76
2023/03/13 02:50:18;;;;;;;112.85;14.13;;;;;;;-144.73;100.00;54559.59;5023041;28;20195;-76
2023/03/13 02:52:46;;;;;;;90.95;14.82;;;;;;;-144.73;100.00;54559.59;5014799;28;20034;-76
2023/03/13 02:55:21;;;;;;;95.78;16.17;;;;;;;-144.73;100.00;54584.22;5033250;28;20033;-79
2023/03/13 02:57:46;;;;;;;102.88;17.52;;;;;;;-144.73;100.00;54588.31;5032838;28;20102;-79
2023/03/13 03:00:15;;;;;;;109.88;15.48;;;;;;;-144.73;100.00;54559.59;5044157;28;20446;-80
2023/03/13 03:02:41;;;;;;;91.65;16.33;;;;;;;-144.73;100.00;54584.22;5048345;28;20171;-79
2023/03/13 03:05:07;;;;;;;104.10;16.45;;;;;;;-144.73;100.00;54608.84;5065611;28;20089;-79
2023/03/13 03:07:33;;;;;;;100.35;15.52;;;;;;;-144.73;100.00;54584.22;5041935;28;20068;-79
2023/03/13 03:09:58;;;;;;;100.70;16.50;;;;;;;-144.73;100.00;54553.44;5041141;28;20028;-79
2023/03/13 03:12:23;;;;;;;94.93;14.40;;;;;;;-144.73;100.00;54563.69;5030364;28;20112;-78
2023/03/13 03:14:49;;;;;;;97.57;17.30;;;;;;;-144.73;100.00;54592.44;5042106;28;20036;-79
2023/03/13 03:17:14;;;;;;;106.10;15.63;;;;;;;-144.73;100.00;54539.06;5027741;28;20064;-80
2023/03/13 03:19:39;;;;;;;88.65;14.48;;;;;;;-144.73;100.00;54596.53;5045763;28;20028;-80
2023/03/13 03:22:05;;;;;;;87.32;14.75;;;;;;;-144.73;100.00;54612.97;5027309;28;20045;-80
2023/03/13 03:24:31;;;;;;;89.32;15.90;;;;;;;-144.73;100.00;54588.31;5027844;28;20025;-81
2023/03/13 03:26:56;;;;;;;77.03;14.20;;;;;;;-144.73;100.00;54559.59;5035477;28;20564;-80
2023/03/13 03:29:21;;;;;;;85.60;15.75;;;;;;;-144.73;100.00;54621.16;5047567;28;20025;-80
2023/03/13 03:31:47;;;;;;;98.07;15.32;;;;;;;-144.73;100.00;54576.00;5046887;28;20036;-80
2023/03/13 03:34:12;;;;;;;89.22;16.15;;;;;;;-144.73;100.00;54567.81;5047684;28;20072;-80
2023/03/13 03:36:38;;;;;;;98.07;16.50;;;;;;;-144.73;100.00;54612.97;5047020;28;20033;-80
2023/03/13 03:39:04;;;;;;;95.47;16.38;;;;;;;-144.73;100.00;54588.31;5046270;28;20431;-80
2023/03/13 03:41:30;;;;;;;107.63;15.48;;;;;;;-144.73;100.00;54596.53;5045143;28;20087;-80
2023/03/13 03:43:55;;;;;;;101.43;14.48;;;;;;;-144.73;100.00;54600.63;5043483;28;20028;-78
2023/03/13 03:46:22;;;;;;;84.93;13.10;;;;;;;-144.73;100.00;54582.16;5034685;28;20129;-81
2023/03/13 03:48:47;;;;;;;97.43;14.63;;;;;;;-144.73;100.00;54555.47;5029536;28;20047;-79
2023/03/13 03:51:13;;;;;;;82.68;14.68;;;;;;;-144.73;100.00;54580.13;5045116;28;20034;-80
2023/03/13 03:53:38;;;;;;;96.68;14.10;;;;;;;-144.73;100.00;54625.28;5025071;28;20053;-80
2023/03/13 03:56:04;;;;;;;68.10;12.95;;;;;;;-144.73;100.00;54596.53;5019836;28;20025;-80
2023/03/13 03:58:29;;;;;;;96.57;13.95;;;;;;;-144.73;100.00;54592.44;5042905;28;20056;-80
2023/03/13 04:00:57;;;;;;;86.60;13.35;;;;;;;-144.73;100.00;54596.53;5063750;28;20017;-78
2023/03/13 04:03:22;;;;;;;74.28;13.30;;;;;;;-144.73;100.00;54580.13;5038313;28;20444;-77
2023/03/13 04:05:48;;;;;;;86.75;12.75;;;;;;;-144.73;100.00;54600.63;5036848;28;20032;-78
2023/03/13 04:08:13;;;;;;;92.65;13.63;;;;;;;-144.73;100.00;54559.59;5044958;28;20021;-78
2023/03/13 04:10:38;;;;;;;77.25;11.70;;;;;;;-144.73;100.00;54571.91;5037825;28;20028;-77
2023/03/13 04:13:04;;;;;;;82.78;12.52;;;;;;;-144.73;100.00;54602.69;5037326;28;20124;-78
2023/03/13 04:15:30;;;;;;;93.25;12.00;;;;;;;-144.73;100.00;54617.06;5040012;28;20025;-78
2023/03/13 04:17:55;;;;;;;83.88;14.43;;;;;;;-144.73;100.00;54551.38;5047195;28;20036;-80
2023/03/13 04:20:20;;;;;;;79.80;12.73;;;;;;;-144.73;100.00;54588.31;5037291;28;20025;-80
2023/03/13 04:22:46;;;;;;;86.85;13.63;;;;;;;-144.73;100.00;54596.53;5026913;28;20029;-79
2023/03/13 04:25:11;;;;;;;86.60;12.52;;;;;;;-144.73;100.00;54582.16;5023930;28;20033;-78
2023/03/13 04:27:36;;;;;;;92.10;12.52;;;;;;;-144.73;100.00;54541.13;5025523;28;20061;-78
2023/03/13 04:30:03;;;;;;;78.43;12.90;;;;;;;-144.73;100.00;54602.69;5034217;28;20036;-78
2023/03/13 04:32:28;;;;;;;82.18;13.27;;;;;;;-144.73;100.00;54559.59;5036792;28;20430;-78
2023/03/13 04:34:54;;;;;;;61.50;12.00;;;;;;;-144.73;100.00;54567.81;5036420;28;20025;-78
2023/03/13 04:37:19;;;;;;;67.63;11.95;;;;;;;-144.73;100.00;54571.91;5020071;28;20044;-78
2023/03/13 04:39:46;;;;;;;95.68;13.38;;;;;;;-144.73;100.00;54580.13;5037541;28;20029;-78
2023/03/13 04:42:12;;;;;;;83.15;13.32;;;;;;;-144.73;100.00;54584.22;5036787;28;20524;-79
2023/03/13 04:44:37;;;;;;;95.57;14.32;;;;;;;-144.73;100.00;54576.00;5037685;28;20029;-77
2023/03/13 04:47:03;;;;;;;80.68;12.60;;;;;;;-144.73;100.00;54563.69;5028508;28;20030;-77
2023/03/13 04:49:29;;;;;;;94.75;12.52;;;;;;;-144.73;100.00;54563.69;5019991;28;20059;-77
2023/03/13 04:51:55;;;;;;;79.53;12.95;;;;;;;-144.73;100.00;54563.69;5021433;28;20038;-77
2023/03/13 04:54:20;;;;;;;72.40;10.85;;;;;;;-144.73;100.00;54551.38;5025071;28;20557;-78
2023/03/13 04:56:45;;;;;;;75.22;12.43;;;;;;;-144.73;100.00;54608.84;5016611;28;20044;-78
2023/03/13 04:59:11;;;;;;;78.47;11.25;;;;;;;-144.73;100.00;54617.06;5017809;28;20068;-78
2023/03/13 05:01:37;;;;;;;87.10;11.50;;;;;;;-144.73;100.00;54539.06;5017488;28;20037;-79
2023/03/13 05:04:04;;;;;;;84.22;11.13;;;;;;;-144.73;100.00;54608.84;5016970;28;20029;-77
2023/03/13 05:06:29;;;;;;;79.80;11.80;;;;;;;-144.73;100.00;54584.22;5033418;28;20060;-75
2023/03/13 05:08:54;;;;;;;90.65;12.40;;;;;;;-144.73;100.00;54612.97;5020174;28;20029;-74
2023/03/13 05:11:20;;;;;;;90.18;14.15;;;;;;;-144.73;100.00;54612.97;5015698;28;20359;-75
2023/03/13 05:13:45;;;;;;;72.57;11.45;;;;;;;-144.73;100.00;54608.84;5021395;28;20017;-75
2023/03/13 05:16:10;;;;;;;82.13;12.38;;;;;;;-144.73;100.00;54567.81;5022235;28;20032;-76
2023/03/13 05:18:36;;;;;;;100.40;13.90;;;;;;;-144.73;100.00;54580.13;5014806;28;20025;-75
2023/03/13 05:21:02;;;;;;;70.55;12.27;;;;;;;-144.73;100.00;54588.31;5022042;28;20116;-74
2023/03/13 05:23:28;;;;;;;85.45;12.52;;;;;;;-144.73;100.00;54600.63;5033452;28;20025;-76
2023/03/13 05:25:53;;;;;;;66.65;11.15;;;;;;;-144.73;100.00;54592.44;5028518;28;20021;-74
2023/03/13 05:28:18;;;;;;;93.25;14.57;;;;;;;-144.73;100.00;54588.31;5014441;28;20103;-74
2023/03/13 05:30:44;;;;;;;77.60;11.60;;;;;;;-144.73;100.00;54621.16;5014900;28;20024;-74
2023/03/13 05:33:09;;;;;;;72.55;11.27;;;;;;;-144.73;100.00;54604.75;5030542;28;20116;-76
2023/03/13 05:35:35;;;;;;;69.30;12.13;;;;;;;-144.73;100.00;54625.28;5031255;28;20037;-77
2023/03/13 05:38:01;;;;;;;63.25;11.23;;;;;;;-144.73;100.00;54561.63;5024224;28;20520;-77
2023/03/13 05:40:26;;;;;;;74.25;11.93;;;;;;;-144.73;100.00;54617.06;5014528;28;20036;-78
2023/03/13 05:42:51;;;;;;;80.13;11.55;;;;;;;-144.73;100.00;54588.31;5013868;28;20099;-77
2023/03/13 05:45:18;;;;;;;67.35;10.98;;;;;;;-144.73;100.00;54563.69;5030089;28;20031;-76
2023/03/13 05:47:43;;;;;;;55.65;9.32;;;;;;;-144.73;100.00;54576.00;5018497;28;20040;-76
2023/03/13 05:50:09;;;;;;;61.42;10.90;;;;;;;-144.73;100.00;54563.69;5018492;28;20037;-75
2023/03/13 05:52:34;;;;;;;67.95;11.45;;;;;;;-144.73;100.00;54559.59;5021678;28;20068;-76
2023/03/13 05:55:00;;;;;;;49.30;9.70;;;;;;;-144.73;100.00;54604.75;5013499;28;20022;-75
2023/03/13 05:57:25;;;;;;;60.65;10.25;;;;;;;-144.73;100.00;54633.47;5029673;28;20044;-75
2023/03/13 05:59:50;;;;;;;64.30;11.38;;;;;;;-144.73;100.00;54588.31;5021761;28;20017;-74
2023/03/13 06:02:16;;;;;;;47.35;9.38;;;;;;;-144.73;100.00;54615.00;5021837;28;20052;-75
2023/03/13 06:04:41;;;;;;;47.50;9.82;;;;;;;-144.73;100.00;54518.53;5033660;28;20028;-74
2023/03/13 06:07:10;;;;;;;54.28;9.07;;;;;;;-144.73;100.00;54580.13;5033442;28;20037;-77
2023/03/13 06:09:35;;;;;;;44.53;8.95;;;;;;;-144.73;100.00;54584.22;5022356;28;20037;-76
2023/03/13 06:12:00;;;;;;;40.85;8.80;;;;;;;-144.73;100.00;54580.13;5028729;28;20127;-77
2023/03/13 06:14:26;;;;;;;45.80;10.57;;;;;;;-144.73;100.00;54617.06;5015584;28;20116;-78
2023/03/13 06:16:53;;;;;;;31.38;8.18;;;;;;;-144.73;100.00;54557.53;5022574;28;20056;-78
2023/03/13 06:19:20;;;;;;;36.80;9.32;;;;;;;-144.73;100.00;54608.84;5031692;28;20039;-78
2023/03/13 06:21:45;;;;;;;35.72;8.68;;;;;;;-144.73;100.00;54612.97;5021446;28;20125;-78
2023/03/13 06:24:11;;;;;;;41.42;8.65;;;;;;;-144.73;100.00;54612.97;5014943;28;20053;-78
2023/03/13 06:26:36;;;;;;;35.67;8.27;;;;;;;-144.73;100.00;54600.63;5024993;28;20112;-79
2023/03/13 06:29:02;;;;;;;39.65;8.57;;;;;;;-144.73;100.00;54559.59;5032302;28;20026;-78
2023/03/13 06:31:27;;;;;;;35.72;9.23;;;;;;;-144.73;100.00;54584.22;5024664;28;20053;-78
2023/03/13 06:33:53;;;;;;;43.25;8.60;;;;;;;-144.73;100.00;54612.97;5029367;28;20029;-77
2023/03/13 06:36:19;;;;;;;37.70;9.95;;;;;;;-144.73;100.00;54567.81;5023104;28;20386;-77
2023/03/13 06:38:45;;;;;;;35.28;10.02;;;;;;;-144.73;100.00;54604.75;5034885;28;20039;-77
2023/03/13 06:41:10;;;;;;;35.47;9.02;;;;;;;-144.73;100.00;54588.31;5026888;28;20046;-78
2023/03/13 06:43:39;;;;;;;40.17;9.95;;;;;;;-144.73;100.00;54602.69;5020983;28;20040;-77
2023/03/13 06:46:05;;;;;;;36.40;9.85;;;;;;;-144.73;100.00;54612.97;5022773;28;20088;-79
2023/03/13 06:48:31;;;;;;;32.17;8.82;;;;;;;-144.73;100.00;54617.06;5034136;28;20025;-79
2023/03/13 06:50:56;;;;;;;32.05;7.60;;;;;;;-144.73;100.00;54612.97;5043013;28;20044;-80
2023/03/13 06:53:23;;;;;;;29.75;8.35;;;;;;;-144.73;100.00;54588.31;5050707;28;20029;-80
2023/03/13 06:55:49;;;;;;;24.83;7.70;;;;;;;-144.73;100.00;54584.22;5050600;28;20083;-81
2023/03/13 06:58:16;;;;;;;17.75;7.03;;;;;;;-144.73;100.00;54594.47;5047143;28;20041;-80
2023/03/13 07:00:43;;;;;;;26.42;7.03;;;;;;;-144.73;100.00;54621.16;5047209;28;20029;-81
2023/03/13 07:03:09;;;;;;;34.03;9.13;;;;;;;-144.73;100.00;54608.84;5046614;28;20037;-81
2023/03/13 07:05:35;;;;;;;23.55;8.00;;;;;;;-144.73;100.00;54596.53;5033743;28;20021;-82
2023/03/13 07:08:00;;;;;;;27.17;7.90;;;;;;;-144.73;100.00;54567.81;5031223;28;20053;-81
2023/03/13 07:10:26;;;;;;;17.75;6.60;;;;;;;-144.73;100.00;54567.81;5034522;28;20029;-81
2023/03/13 07:12:51;;;;;;;19.92;6.97;;;;;;;-144.73;100.00;54596.53;5030880;28;20025;-81
2023/03/13 07:15:16;;;;;;;18.63;5.97;;;;;;;-144.73;100.00;54588.31;5026462;28;20036;-80
2023/03/13 07:17:42;;;;;;;14.57;5.53;;;;;;;-144.73;100.00;54596.53;5028799;28;20450;-80
2023/03/13 07:20:09;;;;;;;16.15;6.00;;;;;;;-144.73;100.00;54592.44;5036482;28;20021;-80
2023/03/13 07:22:36;;;;;;;16.90;5.85;;;;;;;-144.73;100.00;54592.44;5025305;28;20096;-81
2023/03/13 07:25:03;;;;;;;22.80;6.45;;;;;;;-144.73;100.00;54600.63;5030442;28;20082;-80
2023/03/13 07:27:29;;;;;;;22.52;6.97;;;;;;;-144.73;100.00;54592.44;5036487;28;20037;-81
2023/03/13 07:29:54;;;;;;;15.85;5.90;;;;;;;-144.73;100.00;54594.47;5037370;28;20079;-81
2023/03/13 07:32:21;;;;;;;18.52;6.80;;;;;;;-144.73;100.00;54608.84;5026956;28;20029;-80
2023/03/13 07:34:46;;;;;;;34.67;8.30;;;;;;;-144.73;100.00;54588.31;5031044;28;20526;-80
2023/03/13 07:37:13;;;;;;;17.85;8.27;;;;;;;-144.73;100.00;54573.97;5032134;28;20056;-75
2023/03/13 07:39:42;;;;;;;27.52;7.65;;;;;;;-144.73;100.00;54592.44;5025624;28;20040;-75
2023/03/13 07:42:11;;;;;;;18.30;7.07;;;;;;;-144.73;100.00;54584.22;5015912;28;20099;-76
2023/03/13 07:44:37;;;;;;;20.95;7.45;;;;;;;-144.73;100.00;54571.91;5016516;28;20040;-75
2023/03/13 07:47:02;;;;;;;21.05;7.63;;;;;;;-144.73;100.00;54600.63;5016199;28;20029;-75
2023/03/13 07:49:27;;;;;;;20.98;9.23;;;;;;;-144.73;100.00;54637.59;5016239;28;20037;-74
2023/03/13 07:51:53;;;;;;;21.90;8.35;;;;;;;-144.73;100.00;54584.22;5020566;28;20029;-74
2023/03/13 07:54:19;;;;;;;21.70;9.77;;;;;;;-144.73;100.00;54600.63;5027663;28;20044;-74
2023/03/13 07:56:45;;;;;;;20.50;8.68;;;;;;;-144.73;100.00;54608.84;5015314;28;20047;-76
2023/03/13 07:59:10;;;;;;;25.77;9.73;;;;;;;-144.73;100.00;54600.63;5015467;28;20044;-75
2023/03/13 08:01:35;;;;;;;25.20;10.45;;;;;;;-144.73;100.00;54588.31;5023658;28;20037;-76
2023/03/13 08:04:01;;;;;;;22.60;9.63;;;;;;;-144.73;100.00;54619.13;5015949;28;20035;-75
2023/03/13 08:06:29;;;;;;;22.08;9.98;;;;;;;-144.73;100.00;54621.16;5017768;28;20266;-74
2023/03/13 08:08:58;;;;;;;16.38;7.38;;;;;;;-144.73;100.00;54625.28;5015659;28;20052;-75
2023/03/13 08:11:25;;;;;;;17.35;7.70;;;;;;;-144.73;100.00;54588.31;5016438;28;20045;-75
2023/03/13 08:13:52;;;;;;;16.20;8.15;;;;;;;-144.73;100.00;54602.69;5018535;28;20020;-74
2023/03/13 08:16:20;;;;;;;15.13;6.75;;;;;;;-144.73;100.00;54594.47;5014894;28;20116;-75
2023/03/13 08:18:48;;;;;;;15.20;6.78;;;;;;;-144.73;100.00;54563.69;5009084;28;20021;-75
2023/03/13 08:21:20;;;;;;;12.05;6.30;;;;;;;-144.73;100.00;54617.06;5017054;28;20044;-72
2023/03/13 08:23:45;;;;;;;;;;;;;;;-144.73;100.00;54625.28;5026186;28;20048;-76
2023/03/13 08:26:12;;;;;;;14.32;6.53;;;;;;;-144.73;100.00;54612.97;5014593;28;19955;-75
2023/03/13 08:28:39;;;;;;;14.60;6.55;;;;;;;-144.73;100.00;54563.69;5020583;28;20094;-76
2023/03/13 08:31:14;;;;;;;9.68;6.47;;;;;;;-144.73;100.00;54604.75;5013133;28;20025;-76
2023/03/13 08:33:41;;;;;;;11.93;5.40;;;;;;;-144.73;100.00;54604.75;5013215;28;20029;-76
2023/03/13 08:36:10;;;;;;;10.63;5.82;;;;;;;-144.73;100.00;54600.63;5015269;28;20450;-74
2023/03/13 08:38:37;;;;;;;8.00;5.10;;;;;;;-144.73;100.00;54621.16;5026991;28;20102;-75
2023/03/13 08:41:02;;;;;;;10.05;5.32;;;;;;;-144.73;100.00;54588.31;5015347;28;20021;-74
2023/03/13 08:43:28;;;;;;;8.18;5.45;;;;;;;-144.73;100.00;54604.75;5019893;28;20086;-74
2023/03/13 08:45:54;;;;;;;12.30;6.63;;;;;;;-144.73;100.00;54625.28;5020438;28;20018;-74
2023/03/13 08:48:20;;;;;;;12.45;7.10;;;;;;;-144.73;100.00;54578.06;5023507;28;20091;-73
2023/03/13 08:50:45;;;;;;;12.38;6.75;;;;;;;-144.73;100.00;54610.91;5008252;28;20514;-74
2023/03/13 08:53:11;;;;;;;13.18;6.72;;;;;;;-144.73;100.00;54608.84;5011248;28;20041;-73
2023/03/13 08:55:36;;;;;;;12.80;8.02;;;;;;;-144.73;100.00;54612.97;5015214;28;20045;-76
2023/03/13 08:58:01;;;;;;;10.75;7.53;;;;;;;-144.73;100.00;54596.53;5014574;28;20056;-75
2023/03/13 09:00:27;;;;;;;12.60;7.57;;;;;;;-144.73;100.00;54596.53;5023872;28;20033;-75
2023/03/13 09:02:52;;;;;;;9.30;6.80;;;;;;;-144.73;100.00;54612.97;5017073;28;20041;-75
2023/03/13 09:05:18;;;;;;;15.50;8.23;;;;;;;-144.73;100.00;54549.31;4994812;28;20049;-75
2023/03/13 09:07:44;;;;;;;14.90;7.60;;;;;;;-144.73;100.00;54608.84;5021437;28;20131;-76
2023/03/13 09:10:10;;;;;;;15.63;8.18;;;;;;;-144.73;100.00;54592.44;5025189;28;20056;-74
2023/03/13 09:12:35;;;;;;;9.00;6.68;;;;;;;-144.73;100.00;54658.13;5020368;28;20457;-75
2023/03/13 09:15:00;;;;;;;11.30;7.15;;;;;;;-144.73;100.00;54645.78;5009338;28;20029;-75
2023/03/13 09:17:26;;;;;;;12.02;6.90;;;;;;;-144.73;100.00;54596.53;5008571;28;20026;-75
2023/03/13 09:19:51;;;;;;;15.45;6.88;;;;;;;-144.73;100.00;54596.53;5017603;28;20028;-76
2023/03/13 09:22:16;;;;;;;15.85;7.32;;;;;;;-144.73;100.00;54604.75;5016324;28;20076;-76
2023/03/13 09:24:43;;;;;;;17.25;7.25;;;;;;;-144.73;100.00;54658.13;5025396;28;20021;-76
2023/03/13 09:27:09;;;;;;;28.10;7.70;;;;;;;-144.73;100.00;54645.78;5013945;28;20123;-75
2023/03/13 09:29:38;;;;;;;12.85;7.22;;;;;;;-144.73;100.00;54658.13;5013482;28;20040;-75
2023/03/13 09:32:04;;;;;;;9.43;6.75;;;;;;;-144.73;100.00;54608.84;5013653;28;20045;-75
2023/03/13 09:34:30;;;;;;;18.45;6.82;;;;;;;-144.73;100.00;54637.59;5026040;28;20029;-75
2023/03/13 09:36:56;;;;;;;23.40;8.45;;;;;;;-144.73;100.00;54625.28;5015293;28;20037;-76
2023/03/13 09:39:21;;;;;;;14.93;7.57;;;;;;;-144.73;100.00;54645.78;5014450;28;20030;-75
2023/03/13 09:42:09;;;;;;;14.30;6.60;;;;;;;-144.73;100.00;54612.97;5009606;28;20131;-75
2023/03/13 09:44:45;;;;;;;13.55;7.38;;;;;;;-144.73;100.00;54608.84;5009540;28;20083;-75
2023/03/13 09:47:23;;;;;;;13.02;7.97;;;;;;;-144.73;100.00;54629.38;5019662;28;20128;-75
2023/03/13 09:49:55;;;;;;;12.45;7.30;;;;;;;-144.73;100.00;54588.31;5010222;28;20420;-74
2023/03/13 09:52:22;;;;;;;12.73;8.27;;;;;;;-144.73;100.00;54625.28;5008321;28;20025;-75
2023/03/13 09:55:14;;;;;;;16.48;9.10;;;;;;;-144.73;100.00;54633.47;5017062;28;20033;-75
2023/03/13 09:57:48;;;;;;;18.48;8.45;;;;;;;-144.73;100.00;54612.97;5014557;28;20032;-75
2023/03/13 10:00:36;;;;;;;16.20;9.02;;;;;;;-144.73;100.00;54596.53;5009072;28;20017;-75
2023/03/13 10:03:21;;;;;;;25.00;9.60;;;;;;;-144.73;100.00;54608.84;5010499;28;20041;-75
2023/03/13 10:05:56;;;;;;;18.10;9.15;;;;;;;-144.73;100.00;54629.38;5015542;28;20033;-75
2023/03/13 10:08:28;;;;;;;17.88;10.52;;;;;;;-144.73;100.00;54578.06;5012068;28;20101;-73
2023/03/13 10:11:36;;;;;;;13.57;9.13;;;;;;;-144.73;100.00;54612.97;5010280;28;20071;-74
2023/03/13 10:14:21;;;;;;;15.27;8.40;;;;;;;-144.73;100.00;54633.47;5018376;28;20076;-74
2023/03/13 10:16:55;;;;;;;20.10;8.07;;;;;;;-144.73;100.00;54600.63;5022570;28;20037;-74
2023/03/13 10:19:30;;;;;;;12.48;8.43;;;;;;;-144.73;100.00;54571.91;5028233;28;20025;-74
2023/03/13 10:21:56;;;;;;;15.38;7.68;;;;;;;-144.73;100.00;54625.28;5019982;28;20050;-73
2023/03/13 10:24:35;;;;;;;16.95;7.85;;;;;;;-144.73;100.00;54588.31;5019360;28;20058;-71
2023/03/13 10:27:00;;;;;;;13.60;7.15;;;;;;;-144.73;100.00;54641.69;5016185;28;20029;-70
2023/03/13 10:29:29;;;;;;;13.02;7.53;;;;;;;-144.73;100.00;54608.84;5016945;28;20102;-71
2023/03/13 10:32:06;;;;;;;17.98;6.72;;;;;;;-144.73;100.00;54645.78;5024771;28;20091;-70
2023/03/13 10:34:59;;;;;;;15.70;6.50;;;;;;;-144.73;100.00;54658.13;5012399;28;20505;-71
2023/03/13 10:37:38;;;;;;;11.50;6.65;;;;;;;-144.73;100.00;54594.47;5016907;28;20033;-70
2023/03/13 10:40:14;;;;;;;11.07;5.82;;;;;;;-144.73;100.00;54602.69;5023880;28;20013;-71
2023/03/13 10:42:44;;;;;;;11.43;4.88;;;;;;;-144.73;100.00;54596.53;5015433;28;20135;-71
2023/03/13 10:45:17;;;;;;;10.45;5.43;;;;;;;-144.73;100.00;54617.06;5020578;28;20021;-71
2023/03/13 10:47:42;;;;;;;10.45;5.40;;;;;;;-144.73;100.00;54594.47;5006585;28;20445;-71
2023/03/13 10:50:17;;;;;;;7.22;4.82;;;;;;;-144.73;100.00;54608.84;5012640;28;20017;-71
2023/03/13 10:52:46;;;;;;;14.27;5.13;;;;;;;-144.73;100.00;54612.97;5009988;28;20037;-70
2023/03/13 10:55:19;;;;;;;10.85;4.32;;;;;;;-144.73;100.00;54571.91;5007382;28;20018;-70
2023/03/13 10:57:57;;;;;;;16.90;4.78;;;;;;;-144.73;100.00;54602.69;5014672;28;20043;-69
2023/03/13 11:00:33;;;;;;;7.15;4.40;;;;;;;-144.73;100.00;54608.84;5014868;28;20037;-69
2023/03/13 11:02:59;;;;;;;12.30;5.10;;;;;;;-144.73;100.00;54623.22;5018153;28;20037;-69